createdAt,value
2022-09-30T00:03:48.854Z,8.13
2022-09-30T00:08:46.404Z,5.65
2022-09-30T00:13:58.189Z,8.35
2022-09-30T00:18:59.982Z,5.20
2022-09-30T00:23:59.133Z,9.50
2022-09-30T00:29:02.633Z,8.02
2022-09-30T00:34:10.888Z,9.73
2022-09-30T00:39:09.321Z,11.32
2022-09-30T00:44:48.504Z,12.38
2022-09-30T00:49:49.889Z,10.77
2022-09-30T00:54:55.261Z,6.78
2022-09-30T00:59:55.308Z,9.30
2022-09-30T01:04:54.320Z,9.13
2022-09-30T01:10:07.409Z,9.98
2022-09-30T01:15:05.171Z,10.25
2022-09-30T01:20:41.989Z,9.18
2022-09-30T01:26:09.456Z,12.40
2022-09-30T01:31:18.743Z,10.13
2022-09-30T01:36:38.197Z,8.00
2022-09-30T01:41:43.384Z,6.25
2022-09-30T01:46:46.672Z,6.25
2022-09-30T01:51:50.169Z,8.23
2022-09-30T01:56:52.067Z,4.38
2022-09-30T02:01:58.191Z,6.78
2022-09-30T02:07:00.954Z,6.15
2022-09-30T02:12:01.800Z,5.25
2022-09-30T02:17:03.759Z,8.18
2022-09-30T02:22:06.327Z,7.22
2022-09-30T02:27:07.072Z,11.18
2022-09-30T02:32:18.716Z,6.95
2022-09-30T02:37:32.891Z,6.78
2022-09-30T02:42:33.646Z,8.32
2022-09-30T02:47:42.764Z,8.13
2022-09-30T02:52:51.361Z,5.38
2022-09-30T02:58:00.216Z,14.15
2022-09-30T03:03:22.263Z,6.03
2022-09-30T03:08:19.869Z,13.45
2022-09-30T03:14:03.701Z,7.38
2022-09-30T03:19:24.697Z,11.50
2022-09-30T03:24:42.599Z,12.93
2022-09-30T03:29:47.328Z,13.48
2022-09-30T03:34:59.975Z,7.70
2022-09-30T03:40:02.441Z,8.25
2022-09-30T03:45:07.753Z,10.68
2022-09-30T03:50:16.043Z,15.02
2022-09-30T03:55:13.495Z,8.93
2022-09-30T04:00:12.842Z,7.45
2022-09-30T04:05:40.186Z,9.80
2022-09-30T04:10:42.168Z,11.50
2022-09-30T04:15:41.071Z,13.25
2022-09-30T04:20:39.532Z,20.67
2022-09-30T04:25:39.704Z,9.70
2022-09-30T04:30:49.109Z,7.90
2022-09-30T04:35:53.907Z,17.70
2022-09-30T04:41:31.411Z,14.30
2022-09-30T04:46:44.711Z,42.10
2022-09-30T04:51:45.552Z,20.83
2022-09-30T04:57:00.952Z,18.73
2022-09-30T05:02:35.757Z,23.23
2022-09-30T05:07:36.514Z,29.93
2022-09-30T05:18:05.516Z,34.08
2022-09-30T05:24:09.695Z,28.85
2022-09-30T05:29:50.129Z,27.50
2022-09-30T05:35:14.624Z,24.70
2022-09-30T05:40:17.218Z,14.43
2022-09-30T05:45:29.006Z,15.07
2022-09-30T05:50:26.284Z,12.60
2022-09-30T05:55:50.041Z,24.13
2022-09-30T06:01:10.571Z,15.35
2022-09-30T06:06:10.687Z,15.98
2022-09-30T06:11:14.571Z,14.73
2022-09-30T06:16:17.557Z,20.80
2022-09-30T06:21:18.952Z,21.33
2022-09-30T06:26:23.662Z,15.15
2022-09-30T06:31:26.884Z,19.38
2022-09-30T06:36:28.752Z,11.75
2022-09-30T06:46:42.305Z,8.45
2022-09-30T06:51:50.793Z,13.82
2022-09-30T06:57:04.099Z,10.93
2022-09-30T07:02:31.046Z,11.67
2022-09-30T07:07:28.325Z,6.90
2022-09-30T07:12:30.750Z,7.78
2022-09-30T07:17:29.618Z,10.23
2022-09-30T07:22:35.585Z,15.88
2022-09-30T07:28:14.334Z,13.65
2022-09-30T07:38:32.109Z,9.80
2022-09-30T07:43:38.234Z,9.45
2022-09-30T07:48:43.355Z,18.10
2022-09-30T07:59:11.229Z,7.68
2022-09-30T08:04:21.495Z,9.90
2022-09-30T08:09:21.380Z,9.57
2022-09-30T08:14:20.642Z,10.52
2022-09-30T08:19:30.743Z,6.20
2022-09-30T08:24:30.392Z,8.95
2022-09-30T08:29:54.399Z,8.05
2022-09-30T08:35:10.765Z,11.27
2022-09-30T08:40:30.676Z,5.95
2022-09-30T08:45:49.625Z,11.60
2022-09-30T08:51:21.677Z,8.23
2022-09-30T08:56:37.131Z,7.13
2022-09-30T09:02:05.704Z,6.20
2022-09-30T09:07:11.054Z,4.15
2022-09-30T09:12:39.330Z,4.63
2022-09-30T09:18:22.537Z,4.68
2022-09-30T09:23:52.142Z,21.25
2022-09-30T09:29:52.895Z,5.22
2022-09-30T09:35:22.265Z,4.68
2022-09-30T09:46:44.648Z,2.58
2022-09-30T09:52:27.856Z,4.93
2022-09-30T09:57:30.927Z,4.45
2022-09-30T10:02:31.055Z,4.97
2022-09-30T10:07:29.650Z,3.95
2022-09-30T10:12:29.027Z,6.00
2022-09-30T10:17:29.672Z,4.75
2022-09-30T10:22:30.007Z,4.40
2022-09-30T10:27:36.035Z,3.38
2022-09-30T10:32:53.049Z,5.00
2022-09-30T10:43:52.642Z,5.10
2022-09-30T10:48:53.963Z,6.32
2022-09-30T10:54:24.519Z,3.00
2022-09-30T10:59:38.344Z,3.15
2022-09-30T11:04:54.357Z,3.85
2022-09-30T13:21:16.550Z,7.30
2022-09-30T13:27:31.559Z,5.80
2022-09-30T13:39:27.371Z,5.13
2022-09-30T13:57:32.175Z,4.90
2022-09-30T14:18:13.807Z,6.90
2022-09-30T15:21:45.508Z,5.70
2022-09-30T15:47:09.004Z,14.07
2022-09-30T15:53:05.712Z,6.57
2022-09-30T15:58:56.855Z,8.13
2022-09-30T16:09:57.134Z,6.35
2022-09-30T16:15:10.565Z,17.15
2022-09-30T16:20:49.113Z,6.57
2022-09-30T16:26:32.577Z,6.30
2022-09-30T16:43:34.483Z,17.42
2022-09-30T17:02:34.422Z,20.35
2022-09-30T17:19:41.009Z,12.52
2022-09-30T17:26:09.727Z,11.45
2022-09-30T17:37:37.953Z,18.33
2022-09-30T17:43:48.031Z,17.42
2022-09-30T18:09:07.473Z,11.65
2022-09-30T18:15:50.671Z,9.85
2022-09-30T18:27:25.521Z,8.90
2022-09-30T18:32:49.552Z,10.23
2022-09-30T19:03:43.185Z,29.10
2022-09-30T19:15:47.461Z,22.98
2022-09-30T20:25:51.219Z,10.60
2022-09-30T20:43:11.710Z,11.60
2022-09-30T21:30:39.458Z,7.47
2022-09-30T21:36:13.520Z,10.35
2022-09-30T21:47:19.629Z,7.57
2022-09-30T21:58:17.541Z,5.57
2022-09-30T22:03:40.504Z,4.20
2022-09-30T22:09:40.659Z,4.70
2022-09-30T22:15:54.962Z,7.85
2022-09-30T22:21:26.808Z,5.97
2022-09-30T22:26:52.336Z,6.30
2022-09-30T22:32:33.335Z,5.38
2022-09-30T22:38:46.498Z,6.78
2022-09-30T22:50:45.346Z,6.95
2022-09-30T22:56:00.126Z,7.18
2022-09-30T23:02:00.632Z,4.32
2022-09-30T23:13:14.273Z,9.70
2022-09-30T23:18:50.676Z,7.78
2022-09-30T23:24:15.135Z,6.90
2022-09-30T23:54:13.501Z,8.07
2022-09-30T23:59:44.029Z,10.43
